WetterOnline ( https://www.wetteronline.de )

Wetter aktuell Paderborn

Aktuelles Wetter: Bad Lippspringe (158m)

6-stündlich | Neueste Meldungen
Ortszeit Temperatur Wetter
Sa, 25.06. 20:00 25.4° C wolkig
Sa, 25.06. 14:00 24.6° C wolkig
Sa, 25.06. 8:00 19.5° C wolkenlos
Sa, 25.06. 2:00 16.2° C bewölkt
Fr, 24.06. 20:00 20.8° C leicht bewölkt
Fr, 24.06. 14:00 24.6° C bewölkt
Fr, 24.06. 8:00 21.5° C bewölkt
Fr, 24.06. 2:00 23.0° C wolkenlos
Ortszeit Temperatur Wetter
So, 26.06. 1:30 17.2° C wolkig
So, 26.06. 1:20 17.2° C wolkig
So, 26.06. 1:10 17.4° C bewölkt
So, 26.06. 1:00 18.1° C wolkig
So, 26.06. 0:50 18.1° C wolkig
So, 26.06. 0:40 17.0° C bewölkt
So, 26.06. 0:30 16.8° C wolkig
So, 26.06. 0:00 17.5° C wolkig
Sa, 25.06. 23:30 18.2° C wolkig
Sa, 25.06. 23:00 17.4° C wolkig
Sa, 25.06. 22:30 17.7° C wolkig
Ortszeit Relative Feuchte Sichtweite
Sa, 25.06. 20:00 47% 65 km
Sa, 25.06. 14:00 48% 45 km
Sa, 25.06. 8:00 75% 50 km
Sa, 25.06. 2:00 97% 8 km
Fr, 24.06. 20:00 86% 40 km
Fr, 24.06. 14:00 57% >70 km
Fr, 24.06. 8:00 68% 55 km
Fr, 24.06. 2:00 41% >70 km
Ortszeit Relative Feuchte Sichtweite
So, 26.06. 1:30 80% 65 km
So, 26.06. 1:20 80% -
So, 26.06. 1:10 79% -
So, 26.06. 1:00 75% 65 km
So, 26.06. 0:50 75% -
So, 26.06. 0:40 80% -
So, 26.06. 0:30 84% 60 km
So, 26.06. 0:00 81% 65 km
Sa, 25.06. 23:30 78% 55 km
Sa, 25.06. 23:00 85% 55 km
Sa, 25.06. 22:30 83% 35 km
Ortszeit Niederschlagsmenge Niederschlagsart
Sa, 25.06. 20:00 0.0 l/m2 in 12 Std. -
Sa, 25.06. 14:00 0.0 l/m2 in 6 Std. -
Sa, 25.06. 8:00 0.0 l/m2 in 12 Std. -
Sa, 25.06. 2:00 0.0 l/m2 in 6 Std. -
Fr, 24.06. 20:00 6 l/m2 in 12 Std. Regen
Fr, 24.06. 14:00 0.3 l/m2 in 6 Std. Regen
Fr, 24.06. 8:00 1 l/m2 in 12 Std. Regen
Fr, 24.06. 2:00 0.0 l/m2 in 6 Std. -
Ortszeit Niederschlagsmenge Niederschlagsart
So, 26.06. 1:30 0.0 l/m2 in 1 Std. -
So, 26.06. 1:20 keine Meldung -
So, 26.06. 1:10 keine Meldung -
So, 26.06. 1:00 0.0 l/m2 in 1 Std. -
So, 26.06. 0:50 keine Meldung -
So, 26.06. 0:40 keine Meldung -
So, 26.06. 0:30 0.0 l/m2 in 1 Std. -
So, 26.06. 0:00 0.0 l/m2 in 1 Std. -
Sa, 25.06. 23:30 0.0 l/m2 in 1 Std. -
Sa, 25.06. 23:00 0.0 l/m2 in 1 Std. -
Sa, 25.06. 22:30 0.0 l/m2 in 1 Std. -
Ortszeit Stärke Spitze Richtung
km/h Bft. km/h Grad Sektor
Sa, 25.06. 20:00 4 1 22 200° S
Sa, 25.06. 14:00 7 2 25 190° S
Sa, 25.06. 8:00 7 2 11 220° SW
Sa, 25.06. 2:00 4 1 11 140° SO
Fr, 24.06. 20:00 4 1 32 110° O
Fr, 24.06. 14:00 11 2 29 180° S
Fr, 24.06. 8:00 9 2 39 220° SW
Fr, 24.06. 2:00 19 3 31 120° SO
Ortszeit Stärke Spitze Richtung
km/h Bft. km/h Grad Sektor
So, 26.06. 1:30 6 1 11 140° SO
So, 26.06. 1:20 6 1 - 140° SO
So, 26.06. 1:10 7 2 - 140° SO
So, 26.06. 1:00 7 2 11 140° SO
So, 26.06. 0:50 7 2 - 140° SO
So, 26.06. 0:40 4 1 - 150° SO
So, 26.06. 0:30 7 2 11 130° SO
So, 26.06. 0:00 7 2 14 130° SO
Sa, 25.06. 23:30 7 2 11 140° SO
Sa, 25.06. 23:00 7 2 11 130° SO
Sa, 25.06. 22:30 4 1 7 70° O
Ortszeit Untergrenze Bedeckung Gattung
total tief tief mittel hoch
Sa, 25.06. 20:00 8700 m 7/8 0/8 - - -
Sa, 25.06. 14:00 1500 m 6/8 6/8 - - -
Sa, 25.06. 8:00 - 0/8 0/8 - - -
Sa, 25.06. 2:00 3600 m 8/8 7/8 - - -
Fr, 24.06. 20:00 7800 m 3/8 0/8 - - -
Fr, 24.06. 14:00 1140 m 7/8 6/8 - - -
Fr, 24.06. 8:00 1800 m 7/8 7/8 - - -
Fr, 24.06. 2:00 - 0/8 0/8 - - -
Ortszeit Bedeckungsgrad in Achtel und Wolkenuntergrenze
So, 26.06. 1:30 3(6600m) 7(8100m) 8(10500m)
So, 26.06. 1:20 3(6600m) 7(8100m) 8(10500m)
So, 26.06. 1:10 7
So, 26.06. 1:00 4(7800m) 6(10500m) 7(10500m)
So, 26.06. 0:50 4(7800m) 6(10500m) 7(10500m)
So, 26.06. 0:40 7
So, 26.06. 0:30 2(7800m) 8(10500m)
So, 26.06. 0:00 7(8100m) 8(10500m)
Sa, 25.06. 23:30 7(8100m) 8(9000m) 8(10500m)
Sa, 25.06. 23:00 8(8400m) 8(9000m)
Sa, 25.06. 22:30 7(9000m) 8(9000m) 8(10500m)
Ortszeit Luftdruck NN (hPa) Tendenz (hPa in 3 Std.)
Sa, 25.06. 20:00 1011 - 0,4
Sa, 25.06. 14:00 1012 - 0,5
Sa, 25.06. 8:00 1013 + 1,5
Sa, 25.06. 2:00 1010 + 0,7
Fr, 24.06. 20:00 1008 + 0,7
Fr, 24.06. 14:00 1006 - 0,6
Fr, 24.06. 8:00 1008 + 0,6
Fr, 24.06. 2:00 1008 - 1,3
Ortszeit Luftdruck NN (hPa) Tendenz (hPa in 3 Std.)
So, 26.06. 1:30 1012 0,0
So, 26.06. 1:20 1012 keine Meldung
So, 26.06. 1:10 1013 keine Meldung
So, 26.06. 1:00 1012 + 0,2
So, 26.06. 0:50 1012 keine Meldung
So, 26.06. 0:40 1012 keine Meldung
So, 26.06. 0:30 1012 + 0,4
So, 26.06. 0:00 1012 + 0,5
Sa, 25.06. 23:30 1012 + 0,7
Sa, 25.06. 23:00 1012 + 0,9
Sa, 25.06. 22:30 1012 + 1,0
Ortszeit Schneehöhe (cm)
Sa, 25.06. 20:00 0
Sa, 25.06. 14:00 0
Sa, 25.06. 8:00 0
Sa, 25.06. 2:00 0
Fr, 24.06. 20:00 0
Fr, 24.06. 14:00 0
Fr, 24.06. 8:00 0
Fr, 24.06. 2:00 0
Ortszeit Schneehöhe (cm)
So, 26.06. 1:30 0
So, 26.06. 1:20 0
So, 26.06. 1:10 0
So, 26.06. 1:00 0
So, 26.06. 0:50 0
So, 26.06. 0:40 0
So, 26.06. 0:30 0
So, 26.06. 0:00 0
Sa, 25.06. 23:30 0
Sa, 25.06. 23:00 0
Sa, 25.06. 22:30 0
Link zu dieser Seite / Seite empfehlen

Das Wetter in ...